createdAt,value
2018-12-24T00:00:19.443Z,6.05
2018-12-24T00:00:52.362Z,5.50
2018-12-24T00:01:25.293Z,5.95
2018-12-24T00:01:58.558Z,6.17
2018-12-24T00:02:31.508Z,5.00
2018-12-24T00:03:04.756Z,5.05
2018-12-24T00:03:37.825Z,3.92
2018-12-24T00:04:10.733Z,4.35
2018-12-24T00:04:43.644Z,4.12
2018-12-24T00:05:16.569Z,3.62
2018-12-24T00:05:49.482Z,4.25
2018-12-24T00:06:22.699Z,3.70
2018-12-24T00:06:55.618Z,4.30
2018-12-24T00:07:28.538Z,4.00
2018-12-24T00:08:01.453Z,3.95
2018-12-24T00:08:34.681Z,4.00
2018-12-24T00:09:07.975Z,4.00
2018-12-24T00:09:40.881Z,4.08
2018-12-24T00:10:13.834Z,3.42
2018-12-24T00:10:46.842Z,3.77
2018-12-24T00:11:19.762Z,3.12
2018-12-24T00:11:53.233Z,3.60
2018-12-24T00:12:27.165Z,3.33
2018-12-24T00:13:00.398Z,3.58
2018-12-24T00:13:33.612Z,2.72
2018-12-24T00:14:07.923Z,2.95
2018-12-24T00:14:41.235Z,3.12
2018-12-24T00:15:14.457Z,2.95
2018-12-24T00:15:47.744Z,3.22
2018-12-24T00:16:21.055Z,2.55
2018-12-24T00:16:54.608Z,3.00
2018-12-24T00:17:27.547Z,2.67
2018-12-24T00:18:00.863Z,2.65
2018-12-24T00:18:33.786Z,2.77
2018-12-24T00:19:07.774Z,2.95
2018-12-24T00:19:40.731Z,3.10
2018-12-24T00:20:14.277Z,3.62
2018-12-24T00:20:47.202Z,2.40
2018-12-24T00:21:20.470Z,2.52
2018-12-24T00:21:53.720Z,2.70
2018-12-24T00:22:26.988Z,2.65
2018-12-24T00:23:00.278Z,2.60
2018-12-24T00:23:33.198Z,2.98
2018-12-24T00:24:06.938Z,2.30
2018-12-24T00:24:39.861Z,2.70
2018-12-24T00:25:13.484Z,2.60
2018-12-24T00:25:46.919Z,2.42
2018-12-24T00:26:20.196Z,2.40
2018-12-24T00:26:53.150Z,2.80
2018-12-24T00:27:26.610Z,2.55
2018-12-24T00:27:59.543Z,2.50
2018-12-24T00:28:32.484Z,2.05
2018-12-24T00:29:05.421Z,2.62
2018-12-24T00:29:39.117Z,2.45
2018-12-24T00:30:12.025Z,2.30
2018-12-24T00:30:44.969Z,2.20
2018-12-24T00:31:18.319Z,2.35
2018-12-24T00:31:51.367Z,1.98
2018-12-24T00:32:24.823Z,2.17
2018-12-24T00:32:57.763Z,2.42
2018-12-24T00:33:31.036Z,2.42
2018-12-24T00:34:04.392Z,2.50
2018-12-24T00:34:37.316Z,2.25
2018-12-24T00:35:10.217Z,2.60
2018-12-24T00:35:43.967Z,2.72
2018-12-24T00:36:16.891Z,2.20
2018-12-24T00:36:49.835Z,2.25
2018-12-24T00:37:22.779Z,2.22
2018-12-24T00:37:55.736Z,2.00
2018-12-24T00:38:28.646Z,2.95
2018-12-24T00:39:01.911Z,2.25
2018-12-24T00:39:34.979Z,2.87
2018-12-24T00:40:07.893Z,2.50
2018-12-24T00:40:40.838Z,2.50
2018-12-24T00:41:14.451Z,2.67
2018-12-24T00:41:47.675Z,2.70
2018-12-24T00:42:20.613Z,2.27
2018-12-24T00:42:53.532Z,2.67
2018-12-24T00:43:26.809Z,2.22
2018-12-24T00:44:02.746Z,2.60
2018-12-24T00:44:35.650Z,2.33
2018-12-24T00:45:08.576Z,2.40
2018-12-24T00:45:41.640Z,2.40
2018-12-24T00:46:14.554Z,2.35
2018-12-24T00:46:47.998Z,2.85
2018-12-24T00:47:21.414Z,2.35
2018-12-24T00:47:54.371Z,2.55
2018-12-24T00:48:28.128Z,2.40
2018-12-24T00:49:01.019Z,2.50
2018-12-24T00:49:34.624Z,2.62
2018-12-24T00:50:07.539Z,3.52
2018-12-24T00:50:40.491Z,3.60
2018-12-24T00:51:13.412Z,2.98
2018-12-24T00:51:46.338Z,3.52
2018-12-24T00:52:19.273Z,3.17
2018-12-24T00:52:52.892Z,3.40
2018-12-24T00:53:26.262Z,2.65
2018-12-24T00:53:59.530Z,3.27
2018-12-24T00:54:32.447Z,3.42
2018-12-24T00:55:05.694Z,3.40
2018-12-24T00:55:38.615Z,3.30
2018-12-24T00:56:11.908Z,4.25
2018-12-24T00:56:44.852Z,3.05
2018-12-24T00:57:17.784Z,3.27
2018-12-24T00:57:51.115Z,3.67
2018-12-24T00:58:24.367Z,3.10
2018-12-24T00:58:57.419Z,3.85
2018-12-24T00:59:30.323Z,3.37
2018-12-24T01:00:03.342Z,3.00
2018-12-24T01:00:36.867Z,2.72
2018-12-24T01:01:10.178Z,2.65
2018-12-24T01:01:43.460Z,2.75
2018-12-24T01:02:16.724Z,3.20
2018-12-24T01:02:49.910Z,2.70
2018-12-24T01:03:22.847Z,2.72
2018-12-24T01:03:55.765Z,3.37
2018-12-24T01:04:29.001Z,2.42
2018-12-24T01:05:02.037Z,3.17
2018-12-24T01:05:35.539Z,2.60
2018-12-24T01:06:08.450Z,2.70
2018-12-24T01:06:42.127Z,2.92
2018-12-24T01:07:15.429Z,2.60
2018-12-24T01:07:49.072Z,3.05
2018-12-24T01:08:22.016Z,2.77
2018-12-24T01:08:55.955Z,3.02
2018-12-24T01:09:28.884Z,3.15
2018-12-24T01:10:01.877Z,3.25
2018-12-24T01:10:34.812Z,3.42
2018-12-24T01:11:07.751Z,3.30
2018-12-24T01:11:40.680Z,3.70
2018-12-24T01:12:13.908Z,3.60
2018-12-24T01:12:47.219Z,3.95
2018-12-24T01:13:20.143Z,3.58
2018-12-24T01:13:53.430Z,3.40
2018-12-24T01:14:26.728Z,3.80
2018-12-24T01:14:59.637Z,3.67
2018-12-24T01:15:34.448Z,4.05
2018-12-24T01:16:08.265Z,3.75
2018-12-24T01:16:41.157Z,4.45
2018-12-24T01:17:14.441Z,4.00
2018-12-24T01:17:47.712Z,3.70
2018-12-24T01:18:20.753Z,3.67
2018-12-24T01:18:53.649Z,3.67
2018-12-24T01:19:26.573Z,4.10
2018-12-24T01:19:59.495Z,4.00
2018-12-24T01:20:33.892Z,3.37
2018-12-24T01:21:07.331Z,4.20
2018-12-24T01:21:40.242Z,3.70
2018-12-24T01:22:13.155Z,3.60
2018-12-24T01:22:46.066Z,3.90
2018-12-24T01:23:19.289Z,3.77
2018-12-24T01:23:52.212Z,4.10
2018-12-24T01:24:25.128Z,3.90
2018-12-24T01:24:58.023Z,4.00
2018-12-24T01:25:31.289Z,3.70
2018-12-24T01:26:04.207Z,3.80
2018-12-24T01:26:37.504Z,3.40
2018-12-24T01:27:10.416Z,4.17
2018-12-24T01:27:43.727Z,4.05
2018-12-24T01:28:16.647Z,3.87
2018-12-24T01:28:49.547Z,3.27
2018-12-24T01:29:22.450Z,3.77
2018-12-24T01:29:55.354Z,3.90
2018-12-24T01:30:28.279Z,3.52
2018-12-24T01:31:01.188Z,2.98
2018-12-24T01:31:34.102Z,3.67
2018-12-24T01:32:07.038Z,4.37
2018-12-24T01:32:40.344Z,3.30
2018-12-24T01:33:13.630Z,3.50
2018-12-24T01:33:46.554Z,3.60
2018-12-24T01:34:19.915Z,4.03
2018-12-24T01:34:52.827Z,3.55
2018-12-24T01:35:25.732Z,3.67
2018-12-24T01:35:58.633Z,3.45
2018-12-24T01:36:31.551Z,3.40
2018-12-24T01:37:04.472Z,3.60
2018-12-24T01:37:37.419Z,3.80
2018-12-24T01:38:10.789Z,3.58
2018-12-24T01:38:43.699Z,3.60
2018-12-24T01:39:16.598Z,3.65
2018-12-24T01:39:49.812Z,4.10
2018-12-24T01:40:22.726Z,3.62
2018-12-24T01:40:55.648Z,4.42
2018-12-24T01:41:28.553Z,3.90
2018-12-24T01:42:01.464Z,3.30
2018-12-24T01:42:34.490Z,3.80
2018-12-24T01:43:07.443Z,3.52
2018-12-24T01:43:40.349Z,4.30
2018-12-24T01:44:13.518Z,3.80
2018-12-24T01:44:46.774Z,3.67
2018-12-24T01:45:20.068Z,3.58
2018-12-24T01:45:52.993Z,3.75
2018-12-24T01:46:25.912Z,3.95
2018-12-24T01:46:58.827Z,3.58
2018-12-24T01:47:32.109Z,3.62
2018-12-24T01:48:05.026Z,3.52
2018-12-24T01:48:38.289Z,3.95
2018-12-24T01:49:11.201Z,3.50
2018-12-24T01:49:44.438Z,3.83
2018-12-24T01:50:17.355Z,3.95
2018-12-24T01:50:50.599Z,3.60
2018-12-24T01:51:23.522Z,3.55
2018-12-24T01:51:56.431Z,3.83
2018-12-24T01:52:29.333Z,3.90
2018-12-24T01:53:02.659Z,4.12
2018-12-24T01:53:35.573Z,3.92
2018-12-24T01:54:08.522Z,3.62
2018-12-24T01:54:41.426Z,3.30
2018-12-24T01:55:14.341Z,3.65
2018-12-24T01:55:47.254Z,3.95
2018-12-24T01:56:20.167Z,3.70
2018-12-24T01:56:53.399Z,3.70
2018-12-24T01:57:26.754Z,3.40
2018-12-24T01:58:00.451Z,3.40
2018-12-24T01:58:33.362Z,3.87
2018-12-24T01:59:06.287Z,4.00
2018-12-24T01:59:39.599Z,4.03
2018-12-24T02:00:12.852Z,3.40
2018-12-24T02:00:45.773Z,4.10
2018-12-24T02:01:18.690Z,3.33
2018-12-24T02:01:51.599Z,3.98
2018-12-24T02:02:24.805Z,3.60
2018-12-24T02:02:58.025Z,4.05
2018-12-24T02:03:30.918Z,3.52
2018-12-24T02:04:03.826Z,3.70
2018-12-24T02:04:37.090Z,3.70
2018-12-24T02:05:10.039Z,3.15
2018-12-24T02:05:42.955Z,4.03
2018-12-24T02:06:15.872Z,3.80
2018-12-24T02:06:48.783Z,3.60
2018-12-24T02:07:22.068Z,4.00
2018-12-24T02:07:54.971Z,3.62
2018-12-24T02:08:28.163Z,3.80
2018-12-24T02:09:01.071Z,3.70
2018-12-24T02:09:33.993Z,4.58
2018-12-24T02:10:06.903Z,3.85
2018-12-24T02:10:40.115Z,3.65
2018-12-24T02:11:13.759Z,3.70
2018-12-24T02:11:46.706Z,4.35
2018-12-24T02:12:19.614Z,3.58
2018-12-24T02:12:52.565Z,4.00
2018-12-24T02:13:25.464Z,4.00
2018-12-24T02:13:58.658Z,3.80
2018-12-24T02:14:31.571Z,4.03
2018-12-24T02:15:04.491Z,4.00
2018-12-24T02:15:37.403Z,4.05
2018-12-24T02:16:10.349Z,3.72
2018-12-24T02:16:43.253Z,4.20
2018-12-24T02:17:16.556Z,4.10
2018-12-24T02:17:49.457Z,3.92
2018-12-24T02:18:22.383Z,4.05
2018-12-24T02:18:55.299Z,4.45
2018-12-24T02:19:28.577Z,4.00
2018-12-24T02:20:01.473Z,4.08
2018-12-24T02:20:34.533Z,4.03
2018-12-24T02:21:07.785Z,3.70
2018-12-24T02:21:40.742Z,3.58
2018-12-24T02:22:13.650Z,4.15
2018-12-24T02:22:46.570Z,3.87
2018-12-24T02:23:19.501Z,4.40
2018-12-24T02:23:52.412Z,3.98
2018-12-24T02:24:25.730Z,4.03
2018-12-24T02:24:58.668Z,4.47
2018-12-24T02:25:31.591Z,4.50
2018-12-24T02:26:04.499Z,4.62
2018-12-24T02:26:37.409Z,4.22
2018-12-24T02:27:10.362Z,3.90
2018-12-24T02:27:43.564Z,3.90
2018-12-24T02:28:16.987Z,4.95
2018-12-24T02:28:49.927Z,4.35
2018-12-24T02:29:23.109Z,4.28
2018-12-24T02:29:56.017Z,4.20
2018-12-24T02:30:28.927Z,4.17
2018-12-24T02:31:01.836Z,4.12
2018-12-24T02:31:34.757Z,4.70
2018-12-24T02:32:07.657Z,4.30
2018-12-24T02:32:40.931Z,4.10
2018-12-24T02:33:13.851Z,4.05
2018-12-24T02:33:46.758Z,4.78
2018-12-24T02:34:19.675Z,4.12
2018-12-24T02:34:52.601Z,4.33
2018-12-24T02:35:25.527Z,4.85
2018-12-24T02:35:58.583Z,4.30
2018-12-24T02:36:31.545Z,4.03
2018-12-24T02:37:04.883Z,3.87
2018-12-24T02:37:37.920Z,3.75
2018-12-24T02:38:11.168Z,4.58
2018-12-24T02:38:44.211Z,4.00
2018-12-24T02:39:17.126Z,3.90
2018-12-24T02:39:50.067Z,3.50
2018-12-24T02:40:23.352Z,4.20
2018-12-24T02:40:56.251Z,3.55
2018-12-24T02:41:29.172Z,4.72
2018-12-24T02:42:02.699Z,4.05
2018-12-24T02:42:35.605Z,3.75
2018-12-24T02:43:08.527Z,4.10
2018-12-24T02:43:41.465Z,3.90
2018-12-24T02:44:14.414Z,4.05
2018-12-24T02:44:47.314Z,3.58
2018-12-24T02:45:20.226Z,3.65
2018-12-24T02:45:53.141Z,3.90
2018-12-24T02:46:26.049Z,3.90
2018-12-24T02:46:59.239Z,3.95
2018-12-24T02:47:32.142Z,4.00
2018-12-24T02:48:05.053Z,4.00
2018-12-24T02:48:37.972Z,3.95
2018-12-24T02:49:10.930Z,3.60
2018-12-24T02:49:43.924Z,3.75
2018-12-24T02:50:16.834Z,3.77
2018-12-24T02:50:50.054Z,3.90
2018-12-24T02:51:22.971Z,3.50
2018-12-24T02:51:55.887Z,3.95
2018-12-24T02:52:28.800Z,4.00
2018-12-24T02:53:01.719Z,3.60
2018-12-24T02:53:34.631Z,4.15
2018-12-24T02:54:07.527Z,4.00
2018-12-24T02:54:40.451Z,3.67
2018-12-24T02:55:14.151Z,3.47
2018-12-24T02:55:47.068Z,3.90
2018-12-24T02:56:19.988Z,4.20
2018-12-24T02:56:52.882Z,3.58
2018-12-24T02:57:26.145Z,4.50
2018-12-24T02:57:59.339Z,4.00
2018-12-24T02:58:32.580Z,3.70
2018-12-24T02:59:05.606Z,4.22
2018-12-24T02:59:38.520Z,3.72
2018-12-24T03:00:11.472Z,4.00
2018-12-24T03:00:44.367Z,3.85
2018-12-24T03:01:17.278Z,3.60
2018-12-24T03:01:50.317Z,3.77
2018-12-24T03:02:23.504Z,3.92
2018-12-24T03:02:56.425Z,4.83
2018-12-24T03:03:29.335Z,3.70
2018-12-24T03:04:02.239Z,3.37
2018-12-24T03:04:35.156Z,3.65
2018-12-24T03:05:08.076Z,3.52
2018-12-24T03:05:41.412Z,3.80
2018-12-24T03:06:14.328Z,3.72
2018-12-24T03:06:47.598Z,3.50
2018-12-24T03:07:20.503Z,4.45
2018-12-24T03:07:53.402Z,5.05
2018-12-24T03:08:26.315Z,4.95
2018-12-24T03:08:59.227Z,5.00
2018-12-24T03:09:32.148Z,4.12
2018-12-24T03:10:05.111Z,4.90
2018-12-24T03:10:38.015Z,5.17
2018-12-24T03:11:10.943Z,5.30
2018-12-24T03:11:43.867Z,5.17
2018-12-24T03:12:16.765Z,4.90
2018-12-24T03:12:50.068Z,4.90
2018-12-24T03:13:23.278Z,4.92
2018-12-24T03:13:56.188Z,5.30
2018-12-24T03:14:29.107Z,5.53
2018-12-24T03:15:02.029Z,5.05
2018-12-24T03:15:34.927Z,5.47
2018-12-24T03:16:07.837Z,5.75
2018-12-24T03:16:40.787Z,5.47
2018-12-24T03:17:13.695Z,4.95
2018-12-24T03:17:47.364Z,5.53
2018-12-24T03:18:20.272Z,5.75
2018-12-24T03:18:53.191Z,5.50
2018-12-24T03:19:26.501Z,5.22
2018-12-24T03:19:59.413Z,5.55
2018-12-24T03:20:32.321Z,5.00
2018-12-24T03:21:05.226Z,4.50
2018-12-24T03:21:38.141Z,5.40
2018-12-24T03:22:11.459Z,4.80
2018-12-24T03:22:44.350Z,4.62
2018-12-24T03:23:17.611Z,4.92
2018-12-24T03:23:50.515Z,4.08
2018-12-24T03:24:23.426Z,4.92
2018-12-24T03:24:56.634Z,4.42
2018-12-24T03:25:29.546Z,5.10
2018-12-24T03:26:02.467Z,4.30
2018-12-24T03:26:35.363Z,4.60
2018-12-24T03:27:08.292Z,3.60
2018-12-24T03:27:41.226Z,4.50
2018-12-24T03:28:14.144Z,4.08
2018-12-24T03:28:47.052Z,4.60
2018-12-24T03:29:19.967Z,4.35
2018-12-24T03:29:52.867Z,3.80
2018-12-24T03:30:25.777Z,4.05
2018-12-24T03:30:59.100Z,4.10
2018-12-24T03:31:32.008Z,3.80
2018-12-24T03:32:04.928Z,4.37
2018-12-24T03:32:37.844Z,4.35
2018-12-24T03:33:10.788Z,4.05
2018-12-24T03:33:43.697Z,3.25
2018-12-24T03:34:16.635Z,4.67
2018-12-24T03:34:49.529Z,3.90
2018-12-24T03:35:22.490Z,3.83
2018-12-24T03:35:55.413Z,4.20
2018-12-24T03:36:28.332Z,4.20
2018-12-24T03:37:01.240Z,4.87
2018-12-24T03:37:34.154Z,4.40
2018-12-24T03:38:07.179Z,4.42
2018-12-24T03:38:40.122Z,3.92
2018-12-24T03:39:13.013Z,4.35
2018-12-24T03:39:46.686Z,4.65
2018-12-24T03:40:19.588Z,4.03
2018-12-24T03:40:52.515Z,4.65
2018-12-24T03:41:25.417Z,4.95
2018-12-24T03:41:58.626Z,5.00
2018-12-24T03:42:31.855Z,5.42
2018-12-24T03:43:12.458Z,4.90
2018-12-24T03:43:40.069Z,5.67
2018-12-24T03:44:13.008Z,5.15
2018-12-24T03:44:45.895Z,5.20
2018-12-24T03:45:18.794Z,5.25
2018-12-24T03:45:51.702Z,5.42
2018-12-24T03:46:24.636Z,5.28
2018-12-24T03:46:57.999Z,5.60
2018-12-24T03:47:31.279Z,5.20
2018-12-24T03:48:04.183Z,5.00
2018-12-24T03:48:37.551Z,5.70
2018-12-24T03:49:10.460Z,5.60
2018-12-24T03:49:44.079Z,5.10
2018-12-24T03:50:16.996Z,5.30
2018-12-24T03:50:50.246Z,6.37
2018-12-24T03:51:23.178Z,6.37
2018-12-24T03:51:56.115Z,6.03
2018-12-24T03:52:29.015Z,7.00
2018-12-24T03:53:02.075Z,6.80
2018-12-24T03:53:34.960Z,7.05
2018-12-24T03:54:08.260Z,7.20
2018-12-24T03:54:41.163Z,6.78
2018-12-24T03:55:14.119Z,8.25
2018-12-24T03:55:47.033Z,7.55
2018-12-24T03:56:20.279Z,7.05
2018-12-24T03:56:53.572Z,6.65
2018-12-24T03:57:26.484Z,7.87
2018-12-24T03:57:59.399Z,6.53
2018-12-24T03:58:32.680Z,8.53
2018-12-24T03:59:05.607Z,8.40
2018-12-24T03:59:38.521Z,8.80
2018-12-24T04:00:11.449Z,9.60
2018-12-24T04:00:44.391Z,10.00
2018-12-24T04:01:17.323Z,10.40
2018-12-24T04:01:50.226Z,11.43
2018-12-24T04:02:23.140Z,10.48
2018-12-24T04:02:56.044Z,10.15
2018-12-24T04:03:28.952Z,9.93
2018-12-24T04:04:01.853Z,10.32
2018-12-24T04:04:34.776Z,9.70
2018-12-24T04:05:07.674Z,10.08
2018-12-24T04:05:40.902Z,8.73
2018-12-24T04:06:13.841Z,8.58
2018-12-24T04:06:47.230Z,9.35
2018-12-24T04:07:20.141Z,7.72
2018-12-24T04:07:53.042Z,7.92
2018-12-24T04:08:25.977Z,8.10
2018-12-24T04:08:58.901Z,8.68
2018-12-24T04:09:31.815Z,8.50
2018-12-24T04:10:04.737Z,8.43
2018-12-24T04:10:38.004Z,8.15
2018-12-24T04:11:11.253Z,8.30
2018-12-24T04:11:44.182Z,7.22
2018-12-24T04:12:17.423Z,8.08
2018-12-24T04:12:50.659Z,7.28
2018-12-24T04:13:23.613Z,8.30
2018-12-24T04:13:56.521Z,7.00
2018-12-24T04:14:29.432Z,6.75
2018-12-24T04:15:02.351Z,7.00
2018-12-24T04:15:35.221Z,7.70
2018-12-24T04:16:08.121Z,6.70
2018-12-24T04:16:41.044Z,6.97
2018-12-24T04:17:14.405Z,7.03
2018-12-24T04:17:47.331Z,6.08
2018-12-24T04:18:20.482Z,6.08
2018-12-24T04:18:53.685Z,6.05
2018-12-24T04:19:26.599Z,6.05
2018-12-24T04:19:59.839Z,5.47
2018-12-24T04:20:32.737Z,5.28
2018-12-24T04:21:05.668Z,5.05
2018-12-24T04:21:38.601Z,5.55
2018-12-24T04:22:11.592Z,5.25
2018-12-24T04:22:44.529Z,5.45
2018-12-24T04:23:17.439Z,5.70
2018-12-24T04:23:50.726Z,5.62
2018-12-24T04:24:23.629Z,5.22
2018-12-24T04:24:56.548Z,6.28
2018-12-24T04:25:29.442Z,5.65
2018-12-24T04:26:02.639Z,4.85
2018-12-24T04:26:35.916Z,5.40
2018-12-24T04:27:08.818Z,4.95
2018-12-24T04:27:42.290Z,4.90
2018-12-24T04:28:15.301Z,4.53
2018-12-24T04:28:48.205Z,4.75
2018-12-24T04:29:21.110Z,5.00
2018-12-24T04:29:54.036Z,4.05
2018-12-24T04:30:26.959Z,4.70
2018-12-24T04:30:59.875Z,4.37
2018-12-24T04:31:33.213Z,3.85
2018-12-24T04:32:06.462Z,4.40
2018-12-24T04:32:39.359Z,4.17
2018-12-24T04:33:12.257Z,3.95
2018-12-24T04:33:45.199Z,4.10
2018-12-24T04:34:18.115Z,4.62
2018-12-24T04:34:51.029Z,4.00
2018-12-24T04:35:24.645Z,3.40
2018-12-24T04:35:57.555Z,3.47
2018-12-24T04:36:30.467Z,3.52
2018-12-24T04:37:03.372Z,3.12
2018-12-24T04:37:36.612Z,3.20
2018-12-24T04:38:09.522Z,2.45
2018-12-24T04:38:42.420Z,2.20
2018-12-24T04:39:15.374Z,2.55
2018-12-24T04:39:48.707Z,2.42
2018-12-24T04:40:21.621Z,1.70
2018-12-24T04:40:54.819Z,1.90
2018-12-24T04:41:27.731Z,2.42
2018-12-24T04:42:00.651Z,2.17
2018-12-24T04:42:33.855Z,2.35
2018-12-24T04:43:06.757Z,2.20
2018-12-24T04:43:39.669Z,2.30
2018-12-24T04:44:12.854Z,2.85
2018-12-24T04:44:45.798Z,2.77
2018-12-24T04:45:19.049Z,2.62
2018-12-24T04:45:51.941Z,2.67
2018-12-24T04:46:25.137Z,3.42
2018-12-24T04:46:58.059Z,2.70
2018-12-24T04:47:30.960Z,2.80
2018-12-24T04:48:03.874Z,2.75
2018-12-24T04:48:37.227Z,2.98
2018-12-24T04:49:10.469Z,2.90
2018-12-24T04:49:43.380Z,2.85
2018-12-24T04:50:16.424Z,2.80
2018-12-24T04:50:49.360Z,2.40
2018-12-24T04:51:22.296Z,2.40
2018-12-24T04:51:55.195Z,2.58
2018-12-24T04:52:28.111Z,2.35
2018-12-24T04:53:01.018Z,2.98
2018-12-24T04:53:33.932Z,2.87
2018-12-24T04:54:07.137Z,2.87
2018-12-24T04:54:40.060Z,2.80
2018-12-24T04:55:13.119Z,2.80
2018-12-24T04:55:46.050Z,2.52
2018-12-24T04:56:18.983Z,2.60
2018-12-24T04:56:52.225Z,2.90
2018-12-24T04:57:25.143Z,2.10
2018-12-24T04:57:58.334Z,2.15
2018-12-24T04:58:31.242Z,2.42
2018-12-24T04:59:04.162Z,2.20
2018-12-24T04:59:37.076Z,1.90
2018-12-24T05:00:09.981Z,2.08
2018-12-24T05:00:42.913Z,2.25
2018-12-24T05:01:16.183Z,2.02
2018-12-24T05:01:49.088Z,2.10
2018-12-24T05:02:22.011Z,1.98
2018-12-24T05:02:54.901Z,2.10
2018-12-24T05:03:28.140Z,1.87
2018-12-24T05:04:01.056Z,1.90
2018-12-24T05:04:33.966Z,2.17
2018-12-24T05:05:06.890Z,1.85
2018-12-24T05:05:39.798Z,2.00
2018-12-24T05:06:12.699Z,1.70
2018-12-24T05:06:45.641Z,1.42
2018-12-24T05:07:18.560Z,1.82
2018-12-24T05:07:51.467Z,1.60
2018-12-24T05:08:24.386Z,1.60
2018-12-24T05:08:57.295Z,1.57
2018-12-24T05:09:30.561Z,1.32
2018-12-24T05:10:03.847Z,1.45
2018-12-24T05:10:37.025Z,1.55
2018-12-24T05:11:09.943Z,1.50
2018-12-24T05:11:43.130Z,1.30
2018-12-24T05:12:16.076Z,1.32
2018-12-24T05:12:48.973Z,1.40
2018-12-24T05:13:21.874Z,1.75
2018-12-24T05:13:55.073Z,1.40
2018-12-24T05:14:28.026Z,1.47
2018-12-24T05:15:00.937Z,1.60
2018-12-24T05:15:33.850Z,1.40
2018-12-24T05:16:06.769Z,1.40
2018-12-24T05:16:39.784Z,1.77
2018-12-24T05:17:12.713Z,1.62
2018-12-24T05:17:45.667Z,1.50
2018-12-24T05:18:18.565Z,1.57
2018-12-24T05:18:51.491Z,1.50
2018-12-24T05:19:24.407Z,1.40
2018-12-24T05:19:57.331Z,1.50
2018-12-24T05:20:30.697Z,1.40
2018-12-24T05:21:03.909Z,1.67
2018-12-24T05:21:36.814Z,1.70
2018-12-24T05:22:09.716Z,1.30
2018-12-24T05:22:42.626Z,1.20
2018-12-24T05:23:15.576Z,1.50
2018-12-24T05:23:48.779Z,1.00
2018-12-24T05:24:22.027Z,1.40
2018-12-24T05:24:55.682Z,1.40
2018-12-24T05:25:28.607Z,1.02
2018-12-24T05:26:01.514Z,1.10
2018-12-24T05:26:34.435Z,1.10
2018-12-24T05:27:07.815Z,1.10
2018-12-24T05:27:40.735Z,1.17
2018-12-24T05:28:13.654Z,1.65
2018-12-24T05:28:46.596Z,1.10
2018-12-24T05:29:19.506Z,1.32
2018-12-24T05:29:52.775Z,1.32
2018-12-24T05:30:25.673Z,1.47
2018-12-24T05:30:58.584Z,1.30
2018-12-24T05:31:31.502Z,1.45
2018-12-24T05:32:04.409Z,1.10
2018-12-24T05:32:38.048Z,1.75
2018-12-24T05:33:10.967Z,1.30
2018-12-24T05:33:43.873Z,1.40
2018-12-24T05:34:17.138Z,1.42
2018-12-24T05:34:50.051Z,1.40
2018-12-24T05:35:22.966Z,1.50
2018-12-24T05:35:55.874Z,1.62
2018-12-24T05:36:29.100Z,1.60
2018-12-24T05:37:02.001Z,1.50
2018-12-24T05:37:34.912Z,1.52
2018-12-24T05:38:07.831Z,1.60
2018-12-24T05:38:40.739Z,1.45
2018-12-24T05:39:13.658Z,1.42
2018-12-24T05:39:46.581Z,1.32
2018-12-24T05:40:19.490Z,1.45
2018-12-24T05:40:52.422Z,1.45
2018-12-24T05:41:25.455Z,1.55
2018-12-24T05:41:58.379Z,1.87
2018-12-24T05:42:31.304Z,1.90
2018-12-24T05:43:04.223Z,1.62
2018-12-24T05:43:37.135Z,1.65
2018-12-24T05:44:10.023Z,1.92
2018-12-24T05:44:42.950Z,2.10
2018-12-24T05:45:15.881Z,1.70
2018-12-24T05:45:49.291Z,1.72
2018-12-24T05:46:22.205Z,2.10
2018-12-24T05:46:55.488Z,2.17
2018-12-24T05:47:28.770Z,2.05
2018-12-24T05:48:01.686Z,2.30
2018-12-24T05:48:34.586Z,1.95
2018-12-24T05:49:07.500Z,2.08
2018-12-24T05:49:40.419Z,2.40
2018-12-24T05:50:13.325Z,1.90
2018-12-24T05:50:46.318Z,2.12
2018-12-24T05:51:19.233Z,2.40
2018-12-24T05:51:52.152Z,2.22
2018-12-24T05:52:25.067Z,2.10
2018-12-24T05:52:57.963Z,2.58
2018-12-24T05:53:30.895Z,2.17
2018-12-24T05:54:03.825Z,1.98
2018-12-24T05:54:36.732Z,2.40
2018-12-24T05:55:09.645Z,2.60
2018-12-24T05:55:42.576Z,2.27
2018-12-24T05:56:15.510Z,2.72
2018-12-24T05:56:48.862Z,2.55
2018-12-24T05:57:21.762Z,2.50
2018-12-24T05:57:54.679Z,2.37
2018-12-24T05:58:27.573Z,2.65
2018-12-24T05:59:00.498Z,2.35
2018-12-24T05:59:33.393Z,2.52
2018-12-24T06:00:06.324Z,2.50
2018-12-24T06:00:39.217Z,2.17
2018-12-24T06:01:12.155Z,2.35
2018-12-24T06:01:45.440Z,2.30
2018-12-24T06:02:18.351Z,2.55
2018-12-24T06:02:51.263Z,2.27
2018-12-24T06:03:24.169Z,2.67
2018-12-24T06:03:57.086Z,2.27
2018-12-24T06:04:30.003Z,2.20
2018-12-24T06:05:02.948Z,2.85
2018-12-24T06:05:35.845Z,2.65
2018-12-24T06:06:09.190Z,2.30
2018-12-24T06:06:42.098Z,2.50
2018-12-24T06:07:15.361Z,2.60
2018-12-24T06:07:48.651Z,2.40
2018-12-24T06:08:21.560Z,2.50
2018-12-24T06:08:54.746Z,2.75
2018-12-24T06:09:27.646Z,2.80
2018-12-24T06:10:00.987Z,2.17
2018-12-24T06:10:34.556Z,2.72
2018-12-24T06:11:07.467Z,3.08
2018-12-24T06:11:40.363Z,2.60
2018-12-24T06:12:13.265Z,2.33
2018-12-24T06:12:46.207Z,2.45
2018-12-24T06:13:19.131Z,2.52
2018-12-24T06:13:58.001Z,2.87
2018-12-24T06:14:26.747Z,2.42
2018-12-24T06:15:00.256Z,2.50
2018-12-24T06:15:33.549Z,2.37
2018-12-24T06:16:06.445Z,1.72
2018-12-24T06:16:39.675Z,2.10
2018-12-24T06:17:12.591Z,2.10
2018-12-24T06:17:45.499Z,2.98
2018-12-24T06:18:18.446Z,2.33
2018-12-24T06:18:51.358Z,2.25
2018-12-24T06:19:24.399Z,1.95
2018-12-24T06:19:57.639Z,2.08
2018-12-24T06:20:37.668Z,2.25
2018-12-24T06:21:05.624Z,1.92
2018-12-24T06:21:38.529Z,1.75
2018-12-24T06:22:11.885Z,1.90
2018-12-24T06:22:44.815Z,2.00
2018-12-24T06:23:17.735Z,1.70
2018-12-24T06:23:50.658Z,1.60
2018-12-24T06:24:23.586Z,1.95
2018-12-24T06:24:56.525Z,1.72
2018-12-24T06:25:29.434Z,2.00
2018-12-24T06:26:02.353Z,1.85
2018-12-24T06:26:35.270Z,2.17
2018-12-24T06:27:08.541Z,2.22
2018-12-24T06:27:41.443Z,1.90
2018-12-24T06:28:14.699Z,2.00
2018-12-24T06:28:47.607Z,2.15
2018-12-24T06:29:20.566Z,2.02
2018-12-24T06:29:53.466Z,2.25
2018-12-24T06:30:26.683Z,2.20
2018-12-24T06:30:59.585Z,1.90
2018-12-24T06:31:32.769Z,2.05
2018-12-24T06:32:05.688Z,1.90
2018-12-24T06:32:38.945Z,1.72
2018-12-24T06:33:11.847Z,2.20
2018-12-24T06:33:44.778Z,1.82
2018-12-24T06:34:17.666Z,2.20
2018-12-24T06:34:50.605Z,1.95
2018-12-24T06:35:23.824Z,1.75
2018-12-24T06:35:56.727Z,2.20
2018-12-24T06:36:29.637Z,2.05
2018-12-24T06:37:02.564Z,2.70
2018-12-24T06:37:35.838Z,2.25
2018-12-24T06:38:09.121Z,2.45
2018-12-24T06:38:42.399Z,2.27
2018-12-24T06:39:15.335Z,2.52
2018-12-24T06:39:48.271Z,2.90
2018-12-24T06:40:21.197Z,2.55
2018-12-24T06:40:54.117Z,2.55
2018-12-24T06:41:27.055Z,1.80
2018-12-24T06:41:59.919Z,2.42
2018-12-24T06:42:32.832Z,2.58
2018-12-24T06:43:05.745Z,2.10
2018-12-24T06:43:38.669Z,2.40
2018-12-24T06:44:11.593Z,2.65
2018-12-24T06:44:44.871Z,2.40
2018-12-24T06:45:17.780Z,2.35
2018-12-24T06:45:50.709Z,2.65
2018-12-24T06:46:23.618Z,2.55
2018-12-24T06:46:56.526Z,2.80
2018-12-24T06:47:29.591Z,2.67
2018-12-24T06:48:02.841Z,3.10
2018-12-24T06:48:35.755Z,2.52
2018-12-24T06:49:08.672Z,2.75
2018-12-24T06:49:41.569Z,2.55
2018-12-24T06:50:15.728Z,2.75
2018-12-24T06:50:48.897Z,2.58
2018-12-24T06:51:21.833Z,3.10
2018-12-24T06:51:54.736Z,2.60
2018-12-24T06:52:27.647Z,2.20
2018-12-24T06:53:00.556Z,1.95
2018-12-24T06:53:33.478Z,2.40
2018-12-24T06:54:06.700Z,2.83
2018-12-24T06:54:39.899Z,2.60
2018-12-24T06:55:12.796Z,2.87
2018-12-24T06:55:45.712Z,2.60
2018-12-24T06:56:18.619Z,2.67
2018-12-24T06:56:51.936Z,2.77
2018-12-24T06:57:25.205Z,2.90
2018-12-24T06:57:58.258Z,2.40
2018-12-24T06:58:31.305Z,2.90
2018-12-24T06:59:05.339Z,2.65
2018-12-24T06:59:38.678Z,2.70
2018-12-24T07:00:11.586Z,2.75
2018-12-24T07:00:44.510Z,2.22
2018-12-24T07:01:17.765Z,2.70
2018-12-24T07:01:51.342Z,2.62
2018-12-24T07:02:24.292Z,2.50
2018-12-24T07:02:57.207Z,2.37
2018-12-24T07:03:30.123Z,2.40
2018-12-24T07:04:03.470Z,2.60
2018-12-24T07:04:36.357Z,2.70
2018-12-24T07:05:09.280Z,2.35
2018-12-24T07:05:42.186Z,2.50
2018-12-24T07:06:15.103Z,2.67
2018-12-24T07:06:48.011Z,2.25
2018-12-24T07:07:20.927Z,2.50
2018-12-24T07:07:53.984Z,2.60
2018-12-24T07:08:26.890Z,2.72
2018-12-24T07:08:59.820Z,2.85
2018-12-24T07:09:33.137Z,2.85
2018-12-24T07:10:06.177Z,2.95
2018-12-24T07:10:39.091Z,3.25
2018-12-24T07:11:11.995Z,2.70
2018-12-24T07:11:44.894Z,2.37
2018-12-24T07:12:17.943Z,2.87
2018-12-24T07:12:51.129Z,2.90
2018-12-24T07:13:24.065Z,2.15
2018-12-24T07:13:57.371Z,3.00
2018-12-24T07:14:30.637Z,2.95
2018-12-24T07:15:03.545Z,2.87
2018-12-24T07:15:37.133Z,2.70
2018-12-24T07:16:10.060Z,2.62
2018-12-24T07:16:42.971Z,3.02
2018-12-24T07:17:15.917Z,2.40
2018-12-24T07:17:48.785Z,3.17
2018-12-24T07:18:22.060Z,2.62
2018-12-24T07:18:55.000Z,2.70
2018-12-24T07:19:27.909Z,2.83
2018-12-24T07:20:00.831Z,3.10